sensor_id;sensor_type;location;lat;lon;timestamp;temperature;humidity
15111;DHT22;7656;51.954;7.998;2023-08-06T00:04:09;16.10;99.90
15111;DHT22;7656;51.954;7.998;2023-08-06T00:08:31;16.20;99.90
15111;DHT22;7656;51.954;7.998;2023-08-06T00:12:52;16.20;99.90
15111;DHT22;7656;51.954;7.998;2023-08-06T00:17:13;16.00;99.90
15111;DHT22;7656;51.954;7.998;2023-08-06T00:21:34;16.10;99.90
15111;DHT22;7656;51.954;7.998;2023-08-06T00:25:55;16.20;99.90
15111;DHT22;7656;51.954;7.998;2023-08-06T00:30:16;16.10;99.90
15111;DHT22;7656;51.954;7.998;2023-08-06T00:34:38;15.90;99.90
15111;DHT22;7656;51.954;7.998;2023-08-06T00:38:59;16.00;99.90
15111;DHT22;7656;51.954;7.998;2023-08-06T00:43:20;16.10;99.90
15111;DHT22;7656;51.954;7.998;2023-08-06T00:47:42;15.80;99.90
15111;DHT22;7656;51.954;7.998;2023-08-06T00:52:07;15.60;99.90
15111;DHT22;7656;51.954;7.998;2023-08-06T00:56:33;15.60;99.90
15111;DHT22;7656;51.954;7.998;2023-08-06T01:00:57;15.60;99.90
15111;DHT22;7656;51.954;7.998;2023-08-06T01:05:19;15.60;99.90
15111;DHT22;7656;51.954;7.998;2023-08-06T01:10:00;15.50;99.90
15111;DHT22;7656;51.954;7.998;2023-08-06T01:14:28;15.50;99.90
15111;DHT22;7656;51.954;7.998;2023-08-06T01:18:52;15.40;99.90
15111;DHT22;7656;51.954;7.998;2023-08-06T01:23:16;15.40;99.90
15111;DHT22;7656;51.954;7.998;2023-08-06T01:32:08;15.50;99.90
15111;DHT22;7656;51.954;7.998;2023-08-06T01:36:32;15.60;99.90
15111;DHT22;7656;51.954;7.998;2023-08-06T01:40:54;15.50;99.90
15111;DHT22;7656;51.954;7.998;2023-08-06T01:45:16;15.20;99.90
15111;DHT22;7656;51.954;7.998;2023-08-06T01:49:37;15.10;99.90
15111;DHT22;7656;51.954;7.998;2023-08-06T01:53:58;14.90;99.90
15111;DHT22;7656;51.954;7.998;2023-08-06T01:58:19;14.90;99.90
15111;DHT22;7656;51.954;7.998;2023-08-06T02:02:40;15.00;99.90
15111;DHT22;7656;51.954;7.998;2023-08-06T02:07:04;15.00;99.90
15111;DHT22;7656;51.954;7.998;2023-08-06T02:11:26;15.00;99.90
15111;DHT22;7656;51.954;7.998;2023-08-06T02:15:48;15.10;99.90
15111;DHT22;7656;51.954;7.998;2023-08-06T02:20:09;15.10;99.90
15111;DHT22;7656;51.954;7.998;2023-08-06T02:24:31;15.20;99.90
15111;DHT22;7656;51.954;7.998;2023-08-06T02:28:52;15.30;99.90
15111;DHT22;7656;51.954;7.998;2023-08-06T02:33:13;15.40;99.90
15111;DHT22;7656;51.954;7.998;2023-08-06T02:37:34;15.20;99.90
15111;DHT22;7656;51.954;7.998;2023-08-06T02:41:56;15.20;99.90
15111;DHT22;7656;51.954;7.998;2023-08-06T02:46:17;15.10;99.90
15111;DHT22;7656;51.954;7.998;2023-08-06T02:50:39;15.10;99.90
15111;DHT22;7656;51.954;7.998;2023-08-06T02:55:01;15.00;99.90
15111;DHT22;7656;51.954;7.998;2023-08-06T02:59:25;15.00;99.90
15111;DHT22;7656;51.954;7.998;2023-08-06T03:04:16;15.00;99.90
15111;DHT22;7656;51.954;7.998;2023-08-06T03:08:40;15.00;99.90
15111;DHT22;7656;51.954;7.998;2023-08-06T03:13:01;15.10;99.90
15111;DHT22;7656;51.954;7.998;2023-08-06T03:17:23;15.10;99.90
15111;DHT22;7656;51.954;7.998;2023-08-06T03:21:44;15.20;99.90
15111;DHT22;7656;51.954;7.998;2023-08-06T03:26:07;15.40;99.90
15111;DHT22;7656;51.954;7.998;2023-08-06T03:30:28;15.40;99.90
15111;DHT22;7656;51.954;7.998;2023-08-06T03:34:50;15.30;99.90
15111;DHT22;7656;51.954;7.998;2023-08-06T03:39:11;15.10;99.90
15111;DHT22;7656;51.954;7.998;2023-08-06T03:43:35;14.90;99.90
15111;DHT22;7656;51.954;7.998;2023-08-06T03:47:59;14.90;99.90
15111;DHT22;7656;51.954;7.998;2023-08-06T03:52:21;14.90;99.90
15111;DHT22;7656;51.954;7.998;2023-08-06T03:56:42;14.90;99.90
15111;DHT22;7656;51.954;7.998;2023-08-06T04:01:03;15.00;99.90
15111;DHT22;7656;51.954;7.998;2023-08-06T04:05:35;14.90;99.90
15111;DHT22;7656;51.954;7.998;2023-08-06T04:10:01;14.70;99.90
15111;DHT22;7656;51.954;7.998;2023-08-06T04:14:26;14.60;99.90
15111;DHT22;7656;51.954;7.998;2023-08-06T04:18:47;14.60;99.90
15111;DHT22;7656;51.954;7.998;2023-08-06T04:23:08;14.70;99.90
15111;DHT22;7656;51.954;7.998;2023-08-06T04:27:30;14.60;99.90
15111;DHT22;7656;51.954;7.998;2023-08-06T04:31:51;14.60;99.90
15111;DHT22;7656;51.954;7.998;2023-08-06T04:36:12;14.60;99.90
15111;DHT22;7656;51.954;7.998;2023-08-06T04:40:35;14.60;99.90
15111;DHT22;7656;51.954;7.998;2023-08-06T04:44:56;14.80;99.90
15111;DHT22;7656;51.954;7.998;2023-08-06T04:49:20;14.90;99.90
15111;DHT22;7656;51.954;7.998;2023-08-06T04:53:41;15.00;99.90
15111;DHT22;7656;51.954;7.998;2023-08-06T04:58:02;15.00;99.90
15111;DHT22;7656;51.954;7.998;2023-08-06T05:02:24;15.10;99.90
15111;DHT22;7656;51.954;7.998;2023-08-06T05:06:45;15.30;99.90
15111;DHT22;7656;51.954;7.998;2023-08-06T05:11:06;15.40;99.90
15111;DHT22;7656;51.954;7.998;2023-08-06T05:15:27;15.70;99.90
15111;DHT22;7656;51.954;7.998;2023-08-06T05:19:48;15.80;99.90
15111;DHT22;7656;51.954;7.998;2023-08-06T05:24:09;15.80;99.90
15111;DHT22;7656;51.954;7.998;2023-08-06T05:28:30;15.90;99.90
15111;DHT22;7656;51.954;7.998;2023-08-06T05:32:51;16.20;99.90
15111;DHT22;7656;51.954;7.998;2023-08-06T05:37:12;16.50;99.90
15111;DHT22;7656;51.954;7.998;2023-08-06T05:41:33;16.60;99.90
15111;DHT22;7656;51.954;7.998;2023-08-06T05:45:56;16.70;99.90
15111;DHT22;7656;51.954;7.998;2023-08-06T05:50:17;16.90;99.90
15111;DHT22;7656;51.954;7.998;2023-08-06T05:54:38;17.10;99.90
15111;DHT22;7656;51.954;7.998;2023-08-06T05:59:01;17.20;99.90
15111;DHT22;7656;51.954;7.998;2023-08-06T06:03:22;17.50;99.90
15111;DHT22;7656;51.954;7.998;2023-08-06T06:07:43;17.50;99.90
15111;DHT22;7656;51.954;7.998;2023-08-06T06:12:05;17.90;99.90
15111;DHT22;7656;51.954;7.998;2023-08-06T06:16:26;18.10;99.90
15111;DHT22;7656;51.954;7.998;2023-08-06T06:20:48;18.10;99.90
15111;DHT22;7656;51.954;7.998;2023-08-06T06:25:09;18.20;99.90
15111;DHT22;7656;51.954;7.998;2023-08-06T06:29:31;18.40;99.90
15111;DHT22;7656;51.954;7.998;2023-08-06T06:33:52;18.40;99.90
15111;DHT22;7656;51.954;7.998;2023-08-06T06:38:15;19.80;99.90
15111;DHT22;7656;51.954;7.998;2023-08-06T06:42:36;23.10;99.90
15111;DHT22;7656;51.954;7.998;2023-08-06T06:47:00;25.90;99.90
15111;DHT22;7656;51.954;7.998;2023-08-06T06:51:21;25.60;99.90
15111;DHT22;7656;51.954;7.998;2023-08-06T06:55:42;23.40;99.90
15111;DHT22;7656;51.954;7.998;2023-08-06T07:00:04;22.00;99.90
15111;DHT22;7656;51.954;7.998;2023-08-06T07:04:26;21.20;99.90
15111;DHT22;7656;51.954;7.998;2023-08-06T07:08:47;21.40;99.90
15111;DHT22;7656;51.954;7.998;2023-08-06T07:13:08;21.10;99.90
15111;DHT22;7656;51.954;7.998;2023-08-06T07:21:53;24.70;99.90
15111;DHT22;7656;51.954;7.998;2023-08-06T07:26:14;24.50;99.90
15111;DHT22;7656;51.954;7.998;2023-08-06T07:30:39;23.90;99.90
15111;DHT22;7656;51.954;7.998;2023-08-06T07:35:00;24.90;99.90
15111;DHT22;7656;51.954;7.998;2023-08-06T07:39:23;27.30;99.90
15111;DHT22;7656;51.954;7.998;2023-08-06T07:43:44;29.50;99.90
15111;DHT22;7656;51.954;7.998;2023-08-06T07:48:05;31.70;99.90
15111;DHT22;7656;51.954;7.998;2023-08-06T07:52:26;31.70;99.90
15111;DHT22;7656;51.954;7.998;2023-08-06T07:56:48;32.70;99.90
15111;DHT22;7656;51.954;7.998;2023-08-06T08:01:09;33.50;99.90
15111;DHT22;7656;51.954;7.998;2023-08-06T08:05:30;32.80;99.90
15111;DHT22;7656;51.954;7.998;2023-08-06T08:09:51;33.90;99.90
15111;DHT22;7656;51.954;7.998;2023-08-06T08:14:12;35.70;99.90
15111;DHT22;7656;51.954;7.998;2023-08-06T08:18:33;37.90;99.50
15111;DHT22;7656;51.954;7.998;2023-08-06T08:22:54;38.30;95.90
15111;DHT22;7656;51.954;7.998;2023-08-06T08:27:16;35.90;96.70
15111;DHT22;7656;51.954;7.998;2023-08-06T08:31:37;37.00;96.30
15111;DHT22;7656;51.954;7.998;2023-08-06T08:36:00;36.40;93.70
15111;DHT22;7656;51.954;7.998;2023-08-06T08:40:23;35.50;94.80
15111;DHT22;7656;51.954;7.998;2023-08-06T08:44:52;33.40;95.50
15111;DHT22;7656;51.954;7.998;2023-08-06T08:49:14;31.90;97.30
15111;DHT22;7656;51.954;7.998;2023-08-06T08:53:37;31.10;99.90
15111;DHT22;7656;51.954;7.998;2023-08-06T08:58:00;30.80;99.90
15111;DHT22;7656;51.954;7.998;2023-08-06T09:02:23;30.20;99.90
15111;DHT22;7656;51.954;7.998;2023-08-06T09:06:48;29.80;99.90
15111;DHT22;7656;51.954;7.998;2023-08-06T09:11:11;29.20;99.90
15111;DHT22;7656;51.954;7.998;2023-08-06T09:15:33;28.90;99.90
15111;DHT22;7656;51.954;7.998;2023-08-06T09:19:54;29.10;99.90
15111;DHT22;7656;51.954;7.998;2023-08-06T09:24:15;32.10;99.90
15111;DHT22;7656;51.954;7.998;2023-08-06T09:28:40;33.70;99.00
15111;DHT22;7656;51.954;7.998;2023-08-06T09:33:03;33.70;97.70
15111;DHT22;7656;51.954;7.998;2023-08-06T09:37:27;33.10;99.20
15111;DHT22;7656;51.954;7.998;2023-08-06T09:42:00;32.10;99.40
15111;DHT22;7656;51.954;7.998;2023-08-06T09:46:22;31.80;99.90
15111;DHT22;7656;51.954;7.998;2023-08-06T09:50:43;31.30;99.90
15111;DHT22;7656;51.954;7.998;2023-08-06T09:55:06;30.20;99.90
15111;DHT22;7656;51.954;7.998;2023-08-06T09:59:28;29.30;99.90
15111;DHT22;7656;51.954;7.998;2023-08-06T10:03:52;28.50;99.90
15111;DHT22;7656;51.954;7.998;2023-08-06T10:08:14;28.10;99.90
15111;DHT22;7656;51.954;7.998;2023-08-06T10:12:39;27.70;99.90
15111;DHT22;7656;51.954;7.998;2023-08-06T10:17:03;27.30;99.90
15111;DHT22;7656;51.954;7.998;2023-08-06T10:21:24;26.70;99.90
15111;DHT22;7656;51.954;7.998;2023-08-06T10:25:53;26.40;99.90
15111;DHT22;7656;51.954;7.998;2023-08-06T10:30:28;26.50;99.90
15111;DHT22;7656;51.954;7.998;2023-08-06T10:34:57;26.40;99.90
15111;DHT22;7656;51.954;7.998;2023-08-06T10:39:19;26.40;99.90
15111;DHT22;7656;51.954;7.998;2023-08-06T10:43:40;26.30;99.90
15111;DHT22;7656;51.954;7.998;2023-08-06T10:48:04;26.40;99.90
15111;DHT22;7656;51.954;7.998;2023-08-06T10:52:26;26.60;99.90
15111;DHT22;7656;51.954;7.998;2023-08-06T10:56:47;27.10;99.90
15111;DHT22;7656;51.954;7.998;2023-08-06T11:01:10;27.10;99.90
15111;DHT22;7656;51.954;7.998;2023-08-06T11:05:31;27.30;99.90
15111;DHT22;7656;51.954;7.998;2023-08-06T11:09:52;27.70;99.90
15111;DHT22;7656;51.954;7.998;2023-08-06T11:14:17;28.20;99.90
15111;DHT22;7656;51.954;7.998;2023-08-06T11:18:40;28.60;99.90
15111;DHT22;7656;51.954;7.998;2023-08-06T11:23:03;28.60;99.90
15111;DHT22;7656;51.954;7.998;2023-08-06T11:27:26;29.10;99.90
15111;DHT22;7656;51.954;7.998;2023-08-06T11:31:49;29.00;99.90
15111;DHT22;7656;51.954;7.998;2023-08-06T11:36:10;28.80;99.90
15111;DHT22;7656;51.954;7.998;2023-08-06T11:40:32;28.60;99.90
15111;DHT22;7656;51.954;7.998;2023-08-06T11:44:56;28.20;99.90
15111;DHT22;7656;51.954;7.998;2023-08-06T11:49:17;27.50;99.90
15111;DHT22;7656;51.954;7.998;2023-08-06T11:53:48;26.70;99.90
15111;DHT22;7656;51.954;7.998;2023-08-06T11:58:10;26.20;99.90
15111;DHT22;7656;51.954;7.998;2023-08-06T12:02:35;25.40;99.90
15111;DHT22;7656;51.954;7.998;2023-08-06T12:07:07;24.70;99.90
15111;DHT22;7656;51.954;7.998;2023-08-06T12:11:31;24.60;99.90
15111;DHT22;7656;51.954;7.998;2023-08-06T12:15:54;24.40;99.90
15111;DHT22;7656;51.954;7.998;2023-08-06T12:20:15;24.40;99.90
15111;DHT22;7656;51.954;7.998;2023-08-06T12:24:36;24.50;99.90
15111;DHT22;7656;51.954;7.998;2023-08-06T12:28:57;24.40;99.90
15111;DHT22;7656;51.954;7.998;2023-08-06T12:33:18;24.20;99.90
15111;DHT22;7656;51.954;7.998;2023-08-06T12:37:40;24.10;99.90
15111;DHT22;7656;51.954;7.998;2023-08-06T12:42:01;23.70;99.90
15111;DHT22;7656;51.954;7.998;2023-08-06T12:46:23;23.10;99.90
15111;DHT22;7656;51.954;7.998;2023-08-06T12:50:44;22.70;99.90
15111;DHT22;7656;51.954;7.998;2023-08-06T12:55:05;22.40;99.90
15111;DHT22;7656;51.954;7.998;2023-08-06T12:59:27;22.10;99.90
15111;DHT22;7656;51.954;7.998;2023-08-06T13:03:48;21.90;99.90
15111;DHT22;7656;51.954;7.998;2023-08-06T13:08:09;22.00;99.90
15111;DHT22;7656;51.954;7.998;2023-08-06T13:12:30;22.40;99.90
15111;DHT22;7656;51.954;7.998;2023-08-06T13:16:51;22.80;99.90
15111;DHT22;7656;51.954;7.998;2023-08-06T13:21:12;23.00;99.90
15111;DHT22;7656;51.954;7.998;2023-08-06T13:25:33;23.40;99.90
15111;DHT22;7656;51.954;7.998;2023-08-06T13:29:57;23.90;99.90
15111;DHT22;7656;51.954;7.998;2023-08-06T13:34:18;24.20;99.90
15111;DHT22;7656;51.954;7.998;2023-08-06T13:38:39;24.40;99.90
15111;DHT22;7656;51.954;7.998;2023-08-06T13:43:01;24.70;99.90
15111;DHT22;7656;51.954;7.998;2023-08-06T13:47:22;24.70;99.90
15111;DHT22;7656;51.954;7.998;2023-08-06T13:51:43;24.60;99.90
15111;DHT22;7656;51.954;7.998;2023-08-06T13:56:08;24.50;99.90
15111;DHT22;7656;51.954;7.998;2023-08-06T14:00:32;24.30;99.90
15111;DHT22;7656;51.954;7.998;2023-08-06T14:04:53;24.10;99.90
15111;DHT22;7656;51.954;7.998;2023-08-06T14:09:15;23.90;99.90
15111;DHT22;7656;51.954;7.998;2023-08-06T14:13:39;23.60;99.90
15111;DHT22;7656;51.954;7.998;2023-08-06T14:18:00;23.50;99.90
15111;DHT22;7656;51.954;7.998;2023-08-06T14:22:22;23.60;99.90
15111;DHT22;7656;51.954;7.998;2023-08-06T14:26:43;23.60;99.90
15111;DHT22;7656;51.954;7.998;2023-08-06T14:31:04;23.20;99.90
15111;DHT22;7656;51.954;7.998;2023-08-06T14:35:25;23.00;99.90
15111;DHT22;7656;51.954;7.998;2023-08-06T14:39:47;23.00;99.90
15111;DHT22;7656;51.954;7.998;2023-08-06T14:44:08;23.20;99.90
15111;DHT22;7656;51.954;7.998;2023-08-06T14:48:30;23.20;99.90
15111;DHT22;7656;51.954;7.998;2023-08-06T14:52:51;23.20;99.90
15111;DHT22;7656;51.954;7.998;2023-08-06T14:57:14;23.20;99.90
15111;DHT22;7656;51.954;7.998;2023-08-06T15:01:35;23.00;99.90
15111;DHT22;7656;51.954;7.998;2023-08-06T15:05:56;23.00;99.90
15111;DHT22;7656;51.954;7.998;2023-08-06T15:10:17;22.80;99.90
15111;DHT22;7656;51.954;7.998;2023-08-06T15:14:38;22.50;99.90
15111;DHT22;7656;51.954;7.998;2023-08-06T15:19:00;21.80;99.90
15111;DHT22;7656;51.954;7.998;2023-08-06T15:23:21;21.30;99.90
15111;DHT22;7656;51.954;7.998;2023-08-06T15:27:43;21.10;99.90
15111;DHT22;7656;51.954;7.998;2023-08-06T15:32:04;21.00;99.90
15111;DHT22;7656;51.954;7.998;2023-08-06T15:36:25;20.70;99.90
15111;DHT22;7656;51.954;7.998;2023-08-06T15:40:46;20.80;99.90
15111;DHT22;7656;51.954;7.998;2023-08-06T15:45:08;20.40;99.90
15111;DHT22;7656;51.954;7.998;2023-08-06T15:49:29;20.10;99.90
15111;DHT22;7656;51.954;7.998;2023-08-06T15:53:50;19.90;99.90
15111;DHT22;7656;51.954;7.998;2023-08-06T15:58:11;19.80;99.90
15111;DHT22;7656;51.954;7.998;2023-08-06T16:02:32;19.60;99.90
15111;DHT22;7656;51.954;7.998;2023-08-06T16:06:54;19.50;99.90
15111;DHT22;7656;51.954;7.998;2023-08-06T16:11:15;19.50;99.90
15111;DHT22;7656;51.954;7.998;2023-08-06T16:15:36;19.30;99.90
15111;DHT22;7656;51.954;7.998;2023-08-06T16:19:58;19.30;99.90
15111;DHT22;7656;51.954;7.998;2023-08-06T16:24:19;19.10;99.90
15111;DHT22;7656;51.954;7.998;2023-08-06T16:28:40;18.90;99.90
15111;DHT22;7656;51.954;7.998;2023-08-06T16:33:01;18.80;99.90
15111;DHT22;7656;51.954;7.998;2023-08-06T16:37:23;18.80;99.90
15111;DHT22;7656;51.954;7.998;2023-08-06T16:41:44;18.60;99.90
15111;DHT22;7656;51.954;7.998;2023-08-06T16:46:05;18.10;99.90
15111;DHT22;7656;51.954;7.998;2023-08-06T16:50:26;17.80;99.90
15111;DHT22;7656;51.954;7.998;2023-08-06T16:54:48;17.70;99.90
15111;DHT22;7656;51.954;7.998;2023-08-06T16:59:10;17.60;99.90
15111;DHT22;7656;51.954;7.998;2023-08-06T17:03:34;17.60;99.90
15111;DHT22;7656;51.954;7.998;2023-08-06T17:07:56;17.60;99.90
15111;DHT22;7656;51.954;7.998;2023-08-06T17:12:17;17.50;99.90
15111;DHT22;7656;51.954;7.998;2023-08-06T17:16:40;17.60;99.90
15111;DHT22;7656;51.954;7.998;2023-08-06T17:21:01;17.60;99.90
15111;DHT22;7656;51.954;7.998;2023-08-06T17:25:23;17.70;99.90
15111;DHT22;7656;51.954;7.998;2023-08-06T17:29:45;17.70;99.90
15111;DHT22;7656;51.954;7.998;2023-08-06T17:34:07;17.70;99.90
15111;DHT22;7656;51.954;7.998;2023-08-06T17:38:28;17.70;99.90
15111;DHT22;7656;51.954;7.998;2023-08-06T17:42:50;17.70;99.90
15111;DHT22;7656;51.954;7.998;2023-08-06T17:47:11;17.80;99.90
15111;DHT22;7656;51.954;7.998;2023-08-06T17:51:32;17.60;99.90
15111;DHT22;7656;51.954;7.998;2023-08-06T17:55:53;17.50;99.90
15111;DHT22;7656;51.954;7.998;2023-08-06T18:00:14;17.40;99.90
15111;DHT22;7656;51.954;7.998;2023-08-06T18:04:38;17.30;99.90
15111;DHT22;7656;51.954;7.998;2023-08-06T18:08:59;17.30;99.90
15111;DHT22;7656;51.954;7.998;2023-08-06T18:13:21;17.40;99.90
15111;DHT22;7656;51.954;7.998;2023-08-06T18:17:42;17.50;99.90
15111;DHT22;7656;51.954;7.998;2023-08-06T18:22:03;17.50;99.90
15111;DHT22;7656;51.954;7.998;2023-08-06T18:26:24;17.10;99.90
15111;DHT22;7656;51.954;7.998;2023-08-06T18:30:45;17.00;99.90
15111;DHT22;7656;51.954;7.998;2023-08-06T18:35:07;16.90;99.90
15111;DHT22;7656;51.954;7.998;2023-08-06T18:39:29;16.70;99.90
15111;DHT22;7656;51.954;7.998;2023-08-06T18:43:51;16.50;99.90
15111;DHT22;7656;51.954;7.998;2023-08-06T18:48:12;16.40;99.90
15111;DHT22;7656;51.954;7.998;2023-08-06T18:52:33;16.30;99.90
15111;DHT22;7656;51.954;7.998;2023-08-06T18:56:54;16.10;99.90
15111;DHT22;7656;51.954;7.998;2023-08-06T19:01:15;16.00;99.90
15111;DHT22;7656;51.954;7.998;2023-08-06T19:05:38;15.90;99.90
15111;DHT22;7656;51.954;7.998;2023-08-06T19:09:59;15.90;99.90
15111;DHT22;7656;51.954;7.998;2023-08-06T19:14:20;15.90;99.90
15111;DHT22;7656;51.954;7.998;2023-08-06T19:18:41;15.90;99.90
15111;DHT22;7656;51.954;7.998;2023-08-06T19:23:03;15.90;99.90
15111;DHT22;7656;51.954;7.998;2023-08-06T19:27:24;15.80;99.90
15111;DHT22;7656;51.954;7.998;2023-08-06T19:31:45;15.70;99.90
15111;DHT22;7656;51.954;7.998;2023-08-06T19:36:06;15.70;99.90
15111;DHT22;7656;51.954;7.998;2023-08-06T19:40:27;15.70;99.90
15111;DHT22;7656;51.954;7.998;2023-08-06T19:44:48;15.60;99.90
15111;DHT22;7656;51.954;7.998;2023-08-06T19:49:10;15.60;99.90
15111;DHT22;7656;51.954;7.998;2023-08-06T19:53:32;15.70;99.90
15111;DHT22;7656;51.954;7.998;2023-08-06T19:57:54;15.70;99.90
15111;DHT22;7656;51.954;7.998;2023-08-06T20:02:15;15.70;99.90
15111;DHT22;7656;51.954;7.998;2023-08-06T20:06:37;15.70;99.90
15111;DHT22;7656;51.954;7.998;2023-08-06T20:10:58;15.70;99.90
15111;DHT22;7656;51.954;7.998;2023-08-06T20:15:20;15.70;99.90
15111;DHT22;7656;51.954;7.998;2023-08-06T20:19:41;15.60;99.90
15111;DHT22;7656;51.954;7.998;2023-08-06T20:24:02;15.60;99.90
15111;DHT22;7656;51.954;7.998;2023-08-06T20:28:24;15.60;99.90
15111;DHT22;7656;51.954;7.998;2023-08-06T20:32:47;15.50;99.90
15111;DHT22;7656;51.954;7.998;2023-08-06T20:37:08;15.50;99.90
15111;DHT22;7656;51.954;7.998;2023-08-06T20:41:29;15.60;99.90
15111;DHT22;7656;51.954;7.998;2023-08-06T20:45:56;15.60;99.90
15111;DHT22;7656;51.954;7.998;2023-08-06T20:50:24;15.50;99.90
15111;DHT22;7656;51.954;7.998;2023-08-06T20:54:45;15.50;99.90
15111;DHT22;7656;51.954;7.998;2023-08-06T20:59:07;15.50;99.90
15111;DHT22;7656;51.954;7.998;2023-08-06T21:03:28;15.50;99.90
15111;DHT22;7656;51.954;7.998;2023-08-06T21:07:51;15.50;99.90
15111;DHT22;7656;51.954;7.998;2023-08-06T21:12:12;15.50;99.90
15111;DHT22;7656;51.954;7.998;2023-08-06T21:16:33;15.50;99.90
15111;DHT22;7656;51.954;7.998;2023-08-06T21:20:56;15.40;99.90
15111;DHT22;7656;51.954;7.998;2023-08-06T21:25:18;15.40;99.90
15111;DHT22;7656;51.954;7.998;2023-08-06T21:29:39;15.50;99.90
15111;DHT22;7656;51.954;7.998;2023-08-06T21:34:02;15.50;99.90
15111;DHT22;7656;51.954;7.998;2023-08-06T21:38:23;15.30;99.90
15111;DHT22;7656;51.954;7.998;2023-08-06T21:42:45;15.30;99.90
15111;DHT22;7656;51.954;7.998;2023-08-06T21:47:06;15.20;99.90
15111;DHT22;7656;51.954;7.998;2023-08-06T21:51:27;15.20;99.90
15111;DHT22;7656;51.954;7.998;2023-08-06T21:55:48;15.30;99.90
15111;DHT22;7656;51.954;7.998;2023-08-06T22:00:09;15.30;99.90
15111;DHT22;7656;51.954;7.998;2023-08-06T22:04:32;15.40;99.90
15111;DHT22;7656;51.954;7.998;2023-08-06T22:08:53;15.60;99.90
15111;DHT22;7656;51.954;7.998;2023-08-06T22:13:14;15.50;99.90
15111;DHT22;7656;51.954;7.998;2023-08-06T22:17:36;15.50;99.90
15111;DHT22;7656;51.954;7.998;2023-08-06T22:21:57;15.60;99.90
15111;DHT22;7656;51.954;7.998;2023-08-06T22:26:18;15.60;99.90
15111;DHT22;7656;51.954;7.998;2023-08-06T22:30:39;15.60;99.90
15111;DHT22;7656;51.954;7.998;2023-08-06T22:35:00;15.50;99.90
15111;DHT22;7656;51.954;7.998;2023-08-06T22:39:21;15.60;99.90
15111;DHT22;7656;51.954;7.998;2023-08-06T22:43:42;15.60;99.90
15111;DHT22;7656;51.954;7.998;2023-08-06T22:48:03;15.60;99.90
15111;DHT22;7656;51.954;7.998;2023-08-06T22:52:24;15.60;99.90
15111;DHT22;7656;51.954;7.998;2023-08-06T22:56:46;15.60;99.90
15111;DHT22;7656;51.954;7.998;2023-08-06T23:01:07;15.50;99.90
15111;DHT22;7656;51.954;7.998;2023-08-06T23:05:28;15.60;99.90
15111;DHT22;7656;51.954;7.998;2023-08-06T23:09:49;15.60;99.90
15111;DHT22;7656;51.954;7.998;2023-08-06T23:14:10;15.70;99.90
15111;DHT22;7656;51.954;7.998;2023-08-06T23:18:31;15.70;99.90
15111;DHT22;7656;51.954;7.998;2023-08-06T23:22:52;15.70;99.90
15111;DHT22;7656;51.954;7.998;2023-08-06T23:27:13;15.60;99.90
15111;DHT22;7656;51.954;7.998;2023-08-06T23:31:34;15.50;99.90
15111;DHT22;7656;51.954;7.998;2023-08-06T23:35:55;15.50;99.90
15111;DHT22;7656;51.954;7.998;2023-08-06T23:40:16;15.60;99.90
15111;DHT22;7656;51.954;7.998;2023-08-06T23:44:39;15.70;99.90
15111;DHT22;7656;51.954;7.998;2023-08-06T23:49:00;15.60;99.90
15111;DHT22;7656;51.954;7.998;2023-08-06T23:53:21;15.40;99.90
15111;DHT22;7656;51.954;7.998;2023-08-06T23:57:42;15.50;99.90
